sensor_id;sensor_type;location;lat;lon;timestamp;P1;durP1;ratioP1;P2;durP2;ratioP2
58091;SDS011;43896;48.178;11.578;2023-06-22T00:01:27;8.30;;;3.58;;
58091;SDS011;43896;48.178;11.578;2023-06-22T00:03:52;8.75;;;3.55;;
58091;SDS011;43896;48.178;11.578;2023-06-22T00:06:17;10.45;;;3.40;;
58091;SDS011;43896;48.178;11.578;2023-06-22T00:08:43;9.35;;;3.42;;
58091;SDS011;43896;48.178;11.578;2023-06-22T00:11:08;8.73;;;3.30;;
58091;SDS011;43896;48.178;11.578;2023-06-22T00:13:34;8.10;;;3.33;;
58091;SDS011;43896;48.178;11.578;2023-06-22T00:15:59;9.43;;;3.60;;
58091;SDS011;43896;48.178;11.578;2023-06-22T00:18:25;6.20;;;3.15;;
58091;SDS011;43896;48.178;11.578;2023-06-22T00:20:53;7.95;;;3.33;;
58091;SDS011;43896;48.178;11.578;2023-06-22T00:23:22;9.45;;;3.50;;
58091;SDS011;43896;48.178;11.578;2023-06-22T00:25:48;10.18;;;3.38;;
58091;SDS011;43896;48.178;11.578;2023-06-22T00:28:14;8.38;;;3.40;;
58091;SDS011;43896;48.178;11.578;2023-06-22T00:30:42;7.60;;;3.33;;
58091;SDS011;43896;48.178;11.578;2023-06-22T00:33:08;7.68;;;3.28;;
58091;SDS011;43896;48.178;11.578;2023-06-22T00:35:33;7.70;;;3.22;;
58091;SDS011;43896;48.178;11.578;2023-06-22T00:37:59;7.82;;;3.20;;
58091;SDS011;43896;48.178;11.578;2023-06-22T00:40:29;7.57;;;2.95;;
58091;SDS011;43896;48.178;11.578;2023-06-22T00:42:55;8.63;;;3.30;;
58091;SDS011;43896;48.178;11.578;2023-06-22T00:45:21;8.23;;;3.47;;
58091;SDS011;43896;48.178;11.578;2023-06-22T00:47:48;7.05;;;2.92;;
58091;SDS011;43896;48.178;11.578;2023-06-22T00:50:18;6.35;;;2.63;;
58091;SDS011;43896;48.178;11.578;2023-06-22T00:52:53;8.65;;;3.65;;
58091;SDS011;43896;48.178;11.578;2023-06-22T00:55:23;7.15;;;3.47;;
58091;SDS011;43896;48.178;11.578;2023-06-22T00:57:50;7.22;;;3.45;;
58091;SDS011;43896;48.178;11.578;2023-06-22T01:00:20;8.13;;;3.38;;
58091;SDS011;43896;48.178;11.578;2023-06-22T01:02:49;10.32;;;3.65;;
58091;SDS011;43896;48.178;11.578;2023-06-22T01:05:17;10.45;;;3.67;;
58091;SDS011;43896;48.178;11.578;2023-06-22T01:10:44;7.00;;;3.17;;
58091;SDS011;43896;48.178;11.578;2023-06-22T01:16:33;8.25;;;3.83;;
58091;SDS011;43896;48.178;11.578;2023-06-22T01:19:01;7.82;;;3.20;;
58091;SDS011;43896;48.178;11.578;2023-06-22T01:21:45;8.07;;;3.55;;
58091;SDS011;43896;48.178;11.578;2023-06-22T01:24:16;9.20;;;3.53;;
58091;SDS011;43896;48.178;11.578;2023-06-22T01:29:55;7.65;;;3.45;;
58091;SDS011;43896;48.178;11.578;2023-06-22T01:32:30;9.20;;;3.95;;
58091;SDS011;43896;48.178;11.578;2023-06-22T01:34:58;6.35;;;3.22;;
58091;SDS011;43896;48.178;11.578;2023-06-22T01:37:26;7.60;;;3.28;;
58091;SDS011;43896;48.178;11.578;2023-06-22T01:39:53;7.22;;;3.53;;
58091;SDS011;43896;48.178;11.578;2023-06-22T01:42:20;9.13;;;3.30;;
58091;SDS011;43896;48.178;11.578;2023-06-22T01:44:46;7.95;;;3.35;;
58091;SDS011;43896;48.178;11.578;2023-06-22T01:47:12;7.18;;;3.35;;
58091;SDS011;43896;48.178;11.578;2023-06-22T01:49:39;7.15;;;3.60;;
58091;SDS011;43896;48.178;11.578;2023-06-22T01:52:06;8.25;;;3.35;;
58091;SDS011;43896;48.178;11.578;2023-06-22T01:54:32;9.82;;;3.50;;
58091;SDS011;43896;48.178;11.578;2023-06-22T01:56:58;11.00;;;3.65;;
58091;SDS011;43896;48.178;11.578;2023-06-22T01:59:29;8.15;;;3.70;;
58091;SDS011;43896;48.178;11.578;2023-06-22T02:02:04;7.47;;;3.40;;
58091;SDS011;43896;48.178;11.578;2023-06-22T02:04:55;8.20;;;3.38;;
58091;SDS011;43896;48.178;11.578;2023-06-22T02:07:29;6.93;;;3.58;;
58091;SDS011;43896;48.178;11.578;2023-06-22T02:09:59;5.47;;;3.13;;
58091;SDS011;43896;48.178;11.578;2023-06-22T02:12:26;8.63;;;3.30;;
58091;SDS011;43896;48.178;11.578;2023-06-22T02:14:54;8.77;;;3.60;;
58091;SDS011;43896;48.178;11.578;2023-06-22T02:17:19;8.18;;;3.08;;
58091;SDS011;43896;48.178;11.578;2023-06-22T02:19:45;8.07;;;3.67;;
58091;SDS011;43896;48.178;11.578;2023-06-22T02:22:11;8.02;;;3.28;;
58091;SDS011;43896;48.178;11.578;2023-06-22T02:24:37;7.00;;;3.30;;
58091;SDS011;43896;48.178;11.578;2023-06-22T02:27:03;8.15;;;3.30;;
58091;SDS011;43896;48.178;11.578;2023-06-22T02:29:29;8.65;;;3.50;;
58091;SDS011;43896;48.178;11.578;2023-06-22T02:31:55;7.03;;;4.18;;
58091;SDS011;43896;48.178;11.578;2023-06-22T02:34:20;7.75;;;3.50;;
58091;SDS011;43896;48.178;11.578;2023-06-22T02:36:47;8.73;;;3.40;;
58091;SDS011;43896;48.178;11.578;2023-06-22T02:39:19;8.73;;;3.30;;
58091;SDS011;43896;48.178;11.578;2023-06-22T02:41:45;7.55;;;3.95;;
58091;SDS011;43896;48.178;11.578;2023-06-22T02:44:10;8.35;;;3.92;;
58091;SDS011;43896;48.178;11.578;2023-06-22T02:46:36;8.48;;;3.50;;
58091;SDS011;43896;48.178;11.578;2023-06-22T02:49:01;7.15;;;3.80;;
58091;SDS011;43896;48.178;11.578;2023-06-22T02:51:27;7.95;;;3.60;;
58091;SDS011;43896;48.178;11.578;2023-06-22T02:53:52;8.98;;;3.83;;
58091;SDS011;43896;48.178;11.578;2023-06-22T02:56:22;8.43;;;3.60;;
58091;SDS011;43896;48.178;11.578;2023-06-22T02:58:50;9.30;;;3.58;;
58091;SDS011;43896;48.178;11.578;2023-06-22T03:01:16;10.98;;;3.78;;
58091;SDS011;43896;48.178;11.578;2023-06-22T03:03:41;8.30;;;3.70;;
58091;SDS011;43896;48.178;11.578;2023-06-22T03:06:07;8.02;;;3.20;;
58091;SDS011;43896;48.178;11.578;2023-06-22T03:08:33;8.23;;;3.70;;
58091;SDS011;43896;48.178;11.578;2023-06-22T03:10:59;9.05;;;3.72;;
58091;SDS011;43896;48.178;11.578;2023-06-22T03:13:24;8.93;;;3.67;;
58091;SDS011;43896;48.178;11.578;2023-06-22T03:15:50;8.15;;;3.50;;
58091;SDS011;43896;48.178;11.578;2023-06-22T03:18:15;7.18;;;3.30;;
58091;SDS011;43896;48.178;11.578;2023-06-22T03:20:40;8.00;;;3.40;;
58091;SDS011;43896;48.178;11.578;2023-06-22T03:23:06;9.95;;;3.97;;
58091;SDS011;43896;48.178;11.578;2023-06-22T03:25:31;9.93;;;4.53;;
58091;SDS011;43896;48.178;11.578;2023-06-22T03:27:58;8.30;;;4.10;;
58091;SDS011;43896;48.178;11.578;2023-06-22T03:30:24;10.68;;;4.85;;
58091;SDS011;43896;48.178;11.578;2023-06-22T03:32:49;11.45;;;4.50;;
58091;SDS011;43896;48.178;11.578;2023-06-22T03:35:14;7.70;;;4.28;;
58091;SDS011;43896;48.178;11.578;2023-06-22T03:37:40;12.55;;;4.80;;
58091;SDS011;43896;48.178;11.578;2023-06-22T03:40:05;16.00;;;4.40;;
58091;SDS011;43896;48.178;11.578;2023-06-22T03:42:33;13.38;;;4.55;;
58091;SDS011;43896;48.178;11.578;2023-06-22T03:44:59;18.00;;;4.97;;
58091;SDS011;43896;48.178;11.578;2023-06-22T03:47:26;12.10;;;4.22;;
58091;SDS011;43896;48.178;11.578;2023-06-22T03:49:51;9.43;;;4.35;;
58091;SDS011;43896;48.178;11.578;2023-06-22T03:52:19;11.30;;;4.37;;
58091;SDS011;43896;48.178;11.578;2023-06-22T03:54:45;9.52;;;4.10;;
58091;SDS011;43896;48.178;11.578;2023-06-22T03:57:11;15.93;;;4.50;;
58091;SDS011;43896;48.178;11.578;2023-06-22T03:59:36;8.57;;;3.90;;
58091;SDS011;43896;48.178;11.578;2023-06-22T04:02:01;8.60;;;4.40;;
58091;SDS011;43896;48.178;11.578;2023-06-22T04:04:27;7.72;;;4.10;;
58091;SDS011;43896;48.178;11.578;2023-06-22T04:06:53;8.23;;;3.90;;
58091;SDS011;43896;48.178;11.578;2023-06-22T04:09:18;10.73;;;4.70;;
58091;SDS011;43896;48.178;11.578;2023-06-22T04:11:43;8.65;;;4.30;;
58091;SDS011;43896;48.178;11.578;2023-06-22T04:14:09;10.57;;;4.30;;
58091;SDS011;43896;48.178;11.578;2023-06-22T04:16:34;7.95;;;4.40;;
58091;SDS011;43896;48.178;11.578;2023-06-22T04:18:59;10.00;;;4.32;;
58091;SDS011;43896;48.178;11.578;2023-06-22T04:21:25;10.85;;;4.47;;
58091;SDS011;43896;48.178;11.578;2023-06-22T04:23:50;11.13;;;4.38;;
58091;SDS011;43896;48.178;11.578;2023-06-22T04:26:16;9.38;;;4.57;;
58091;SDS011;43896;48.178;11.578;2023-06-22T04:28:55;9.57;;;4.73;;
58091;SDS011;43896;48.178;11.578;2023-06-22T04:31:22;9.63;;;4.57;;
58091;SDS011;43896;48.178;11.578;2023-06-22T04:33:59;10.95;;;5.20;;
58091;SDS011;43896;48.178;11.578;2023-06-22T04:36:32;8.73;;;4.32;;
58091;SDS011;43896;48.178;11.578;2023-06-22T04:39:07;11.68;;;4.68;;
58091;SDS011;43896;48.178;11.578;2023-06-22T04:41:36;10.07;;;4.63;;
58091;SDS011;43896;48.178;11.578;2023-06-22T04:44:10;9.57;;;4.85;;
58091;SDS011;43896;48.178;11.578;2023-06-22T04:46:49;11.38;;;4.90;;
58091;SDS011;43896;48.178;11.578;2023-06-22T04:49:18;10.68;;;4.50;;
58091;SDS011;43896;48.178;11.578;2023-06-22T04:51:44;13.10;;;5.13;;
58091;SDS011;43896;48.178;11.578;2023-06-22T04:54:10;10.90;;;4.68;;
58091;SDS011;43896;48.178;11.578;2023-06-22T04:56:35;10.20;;;4.78;;
58091;SDS011;43896;48.178;11.578;2023-06-22T04:59:01;10.90;;;4.93;;
58091;SDS011;43896;48.178;11.578;2023-06-22T05:01:28;10.13;;;5.13;;
58091;SDS011;43896;48.178;11.578;2023-06-22T05:03:53;12.15;;;4.72;;
58091;SDS011;43896;48.178;11.578;2023-06-22T05:06:21;10.63;;;4.75;;
58091;SDS011;43896;48.178;11.578;2023-06-22T05:08:50;10.82;;;5.03;;
58091;SDS011;43896;48.178;11.578;2023-06-22T05:11:17;9.52;;;4.82;;
58091;SDS011;43896;48.178;11.578;2023-06-22T05:13:42;10.45;;;5.18;;
58091;SDS011;43896;48.178;11.578;2023-06-22T05:16:07;8.63;;;4.45;;
58091;SDS011;43896;48.178;11.578;2023-06-22T05:18:32;9.93;;;4.60;;
58091;SDS011;43896;48.178;11.578;2023-06-22T05:20:59;10.75;;;4.55;;
58091;SDS011;43896;48.178;11.578;2023-06-22T05:23:24;9.75;;;4.47;;
58091;SDS011;43896;48.178;11.578;2023-06-22T05:25:50;10.38;;;4.50;;
58091;SDS011;43896;48.178;11.578;2023-06-22T05:28:16;10.48;;;4.72;;
58091;SDS011;43896;48.178;11.578;2023-06-22T05:30:41;12.63;;;4.80;;
58091;SDS011;43896;48.178;11.578;2023-06-22T05:33:06;11.05;;;5.15;;
58091;SDS011;43896;48.178;11.578;2023-06-22T05:35:32;10.77;;;4.90;;
58091;SDS011;43896;48.178;11.578;2023-06-22T05:37:57;11.25;;;5.47;;
58091;SDS011;43896;48.178;11.578;2023-06-22T05:40:22;12.45;;;6.03;;
58091;SDS011;43896;48.178;11.578;2023-06-22T05:42:48;14.82;;;5.53;;
58091;SDS011;43896;48.178;11.578;2023-06-22T05:45:13;7.85;;;4.75;;
58091;SDS011;43896;48.178;11.578;2023-06-22T05:47:38;11.88;;;4.95;;
58091;SDS011;43896;48.178;11.578;2023-06-22T05:50:04;14.38;;;5.32;;
58091;SDS011;43896;48.178;11.578;2023-06-22T05:52:33;10.25;;;4.90;;
58091;SDS011;43896;48.178;11.578;2023-06-22T05:54:59;12.45;;;4.97;;
58091;SDS011;43896;48.178;11.578;2023-06-22T05:57:24;9.38;;;4.75;;
58091;SDS011;43896;48.178;11.578;2023-06-22T05:59:50;13.85;;;5.50;;
58091;SDS011;43896;48.178;11.578;2023-06-22T06:02:15;11.35;;;4.82;;
58091;SDS011;43896;48.178;11.578;2023-06-22T06:04:40;14.00;;;5.53;;
58091;SDS011;43896;48.178;11.578;2023-06-22T06:07:06;11.77;;;5.25;;
58091;SDS011;43896;48.178;11.578;2023-06-22T06:09:32;12.88;;;5.20;;
58091;SDS011;43896;48.178;11.578;2023-06-22T06:11:57;11.07;;;5.25;;
58091;SDS011;43896;48.178;11.578;2023-06-22T06:14:22;13.10;;;5.15;;
58091;SDS011;43896;48.178;11.578;2023-06-22T06:16:48;12.73;;;5.40;;
58091;SDS011;43896;48.178;11.578;2023-06-22T06:19:14;12.10;;;5.38;;
58091;SDS011;43896;48.178;11.578;2023-06-22T06:21:39;14.15;;;6.10;;
58091;SDS011;43896;48.178;11.578;2023-06-22T06:24:05;14.95;;;6.05;;
58091;SDS011;43896;48.178;11.578;2023-06-22T06:26:30;11.23;;;5.43;;
58091;SDS011;43896;48.178;11.578;2023-06-22T06:28:59;14.70;;;6.20;;
58091;SDS011;43896;48.178;11.578;2023-06-22T06:31:25;14.43;;;6.22;;
58091;SDS011;43896;48.178;11.578;2023-06-22T06:33:53;14.18;;;6.10;;
58091;SDS011;43896;48.178;11.578;2023-06-22T06:36:19;11.98;;;6.07;;
58091;SDS011;43896;48.178;11.578;2023-06-22T06:38:44;12.15;;;6.00;;
58091;SDS011;43896;48.178;11.578;2023-06-22T06:41:11;12.88;;;5.63;;
58091;SDS011;43896;48.178;11.578;2023-06-22T06:43:37;13.45;;;5.80;;
58091;SDS011;43896;48.178;11.578;2023-06-22T06:46:03;16.00;;;5.80;;
58091;SDS011;43896;48.178;11.578;2023-06-22T06:48:28;14.50;;;5.55;;
58091;SDS011;43896;48.178;11.578;2023-06-22T06:50:53;11.68;;;6.00;;
58091;SDS011;43896;48.178;11.578;2023-06-22T06:53:18;13.05;;;6.13;;
58091;SDS011;43896;48.178;11.578;2023-06-22T06:55:44;11.15;;;5.85;;
58091;SDS011;43896;48.178;11.578;2023-06-22T06:58:10;12.38;;;5.72;;
58091;SDS011;43896;48.178;11.578;2023-06-22T07:00:38;13.68;;;5.75;;
58091;SDS011;43896;48.178;11.578;2023-06-22T07:03:03;11.38;;;5.80;;
58091;SDS011;43896;48.178;11.578;2023-06-22T07:05:29;13.88;;;6.30;;
58091;SDS011;43896;48.178;11.578;2023-06-22T07:07:54;13.65;;;6.72;;
58091;SDS011;43896;48.178;11.578;2023-06-22T07:10:20;13.10;;;5.85;;
58091;SDS011;43896;48.178;11.578;2023-06-22T07:12:45;13.88;;;5.90;;
58091;SDS011;43896;48.178;11.578;2023-06-22T07:15:10;12.32;;;5.95;;
58091;SDS011;43896;48.178;11.578;2023-06-22T07:17:37;9.85;;;5.53;;
58091;SDS011;43896;48.178;11.578;2023-06-22T07:20:06;11.77;;;6.05;;
58091;SDS011;43896;48.178;11.578;2023-06-22T07:22:35;11.38;;;5.20;;
58091;SDS011;43896;48.178;11.578;2023-06-22T07:25:01;12.95;;;6.25;;
58091;SDS011;43896;48.178;11.578;2023-06-22T07:27:29;12.48;;;5.85;;
58091;SDS011;43896;48.178;11.578;2023-06-22T07:30:00;15.10;;;5.50;;
58091;SDS011;43896;48.178;11.578;2023-06-22T07:32:25;12.25;;;5.43;;
58091;SDS011;43896;48.178;11.578;2023-06-22T07:34:50;12.82;;;5.45;;
58091;SDS011;43896;48.178;11.578;2023-06-22T07:37:15;14.02;;;5.65;;
58091;SDS011;43896;48.178;11.578;2023-06-22T07:39:41;15.50;;;5.88;;
58091;SDS011;43896;48.178;11.578;2023-06-22T07:42:07;8.90;;;5.18;;
58091;SDS011;43896;48.178;11.578;2023-06-22T07:44:32;10.45;;;5.43;;
58091;SDS011;43896;48.178;11.578;2023-06-22T07:46:58;13.23;;;5.93;;
58091;SDS011;43896;48.178;11.578;2023-06-22T07:49:23;13.30;;;5.78;;
58091;SDS011;43896;48.178;11.578;2023-06-22T07:51:49;12.15;;;5.03;;
58091;SDS011;43896;48.178;11.578;2023-06-22T07:54:14;12.20;;;5.47;;
58091;SDS011;43896;48.178;11.578;2023-06-22T07:56:40;10.68;;;4.93;;
58091;SDS011;43896;48.178;11.578;2023-06-22T07:59:06;10.27;;;5.38;;
58091;SDS011;43896;48.178;11.578;2023-06-22T08:01:31;11.02;;;5.38;;
58091;SDS011;43896;48.178;11.578;2023-06-22T08:03:57;13.73;;;5.13;;
58091;SDS011;43896;48.178;11.578;2023-06-22T08:06:22;11.50;;;5.32;;
58091;SDS011;43896;48.178;11.578;2023-06-22T08:08:47;10.25;;;5.30;;
58091;SDS011;43896;48.178;11.578;2023-06-22T08:11:14;10.82;;;5.30;;
58091;SDS011;43896;48.178;11.578;2023-06-22T08:13:39;11.57;;;5.30;;
58091;SDS011;43896;48.178;11.578;2023-06-22T08:16:04;13.73;;;5.70;;
58091;SDS011;43896;48.178;11.578;2023-06-22T08:18:30;14.45;;;5.82;;
58091;SDS011;43896;48.178;11.578;2023-06-22T08:20:55;11.90;;;5.53;;
58091;SDS011;43896;48.178;11.578;2023-06-22T08:23:20;13.10;;;5.38;;
58091;SDS011;43896;48.178;11.578;2023-06-22T08:25:46;14.25;;;6.10;;
58091;SDS011;43896;48.178;11.578;2023-06-22T08:28:13;11.80;;;6.03;;
58091;SDS011;43896;48.178;11.578;2023-06-22T08:30:38;12.45;;;5.38;;
58091;SDS011;43896;48.178;11.578;2023-06-22T08:33:03;13.55;;;5.22;;
58091;SDS011;43896;48.178;11.578;2023-06-22T08:35:29;13.23;;;5.95;;
58091;SDS011;43896;48.178;11.578;2023-06-22T08:37:54;15.18;;;5.45;;
58091;SDS011;43896;48.178;11.578;2023-06-22T08:40:22;12.43;;;5.70;;
58091;SDS011;43896;48.178;11.578;2023-06-22T08:42:47;14.48;;;5.15;;
58091;SDS011;43896;48.178;11.578;2023-06-22T08:45:14;14.73;;;6.05;;
58091;SDS011;43896;48.178;11.578;2023-06-22T08:47:40;10.02;;;5.50;;
58091;SDS011;43896;48.178;11.578;2023-06-22T08:50:06;11.07;;;5.65;;
58091;SDS011;43896;48.178;11.578;2023-06-22T08:52:33;11.75;;;5.30;;
58091;SDS011;43896;48.178;11.578;2023-06-22T08:54:59;11.43;;;5.50;;
58091;SDS011;43896;48.178;11.578;2023-06-22T08:57:24;13.75;;;5.10;;
58091;SDS011;43896;48.178;11.578;2023-06-22T08:59:50;10.48;;;5.80;;
58091;SDS011;43896;48.178;11.578;2023-06-22T09:02:17;14.10;;;5.88;;
58091;SDS011;43896;48.178;11.578;2023-06-22T09:04:43;14.95;;;5.90;;
58091;SDS011;43896;48.178;11.578;2023-06-22T09:07:08;11.82;;;5.30;;
58091;SDS011;43896;48.178;11.578;2023-06-22T09:09:33;11.60;;;5.38;;
58091;SDS011;43896;48.178;11.578;2023-06-22T09:11:58;14.40;;;5.80;;
58091;SDS011;43896;48.178;11.578;2023-06-22T09:14:24;13.13;;;5.25;;
58091;SDS011;43896;48.178;11.578;2023-06-22T09:16:49;13.15;;;5.30;;
58091;SDS011;43896;48.178;11.578;2023-06-22T09:19:15;13.07;;;5.90;;
58091;SDS011;43896;48.178;11.578;2023-06-22T09:21:40;11.60;;;5.55;;
58091;SDS011;43896;48.178;11.578;2023-06-22T09:24:05;10.18;;;5.35;;
58091;SDS011;43896;48.178;11.578;2023-06-22T09:26:31;11.60;;;5.53;;
58091;SDS011;43896;48.178;11.578;2023-06-22T09:28:57;15.57;;;5.20;;
58091;SDS011;43896;48.178;11.578;2023-06-22T09:31:22;13.60;;;5.07;;
58091;SDS011;43896;48.178;11.578;2023-06-22T09:33:53;11.50;;;5.47;;
58091;SDS011;43896;48.178;11.578;2023-06-22T09:36:20;9.88;;;5.03;;
58091;SDS011;43896;48.178;11.578;2023-06-22T09:38:45;13.48;;;5.15;;
58091;SDS011;43896;48.178;11.578;2023-06-22T09:41:11;11.05;;;5.13;;
58091;SDS011;43896;48.178;11.578;2023-06-22T09:43:36;15.38;;;5.72;;
58091;SDS011;43896;48.178;11.578;2023-06-22T09:46:02;13.57;;;5.70;;
58091;SDS011;43896;48.178;11.578;2023-06-22T09:48:28;10.40;;;5.00;;
58091;SDS011;43896;48.178;11.578;2023-06-22T09:50:54;16.20;;;6.03;;
58091;SDS011;43896;48.178;11.578;2023-06-22T09:53:19;11.55;;;5.47;;
58091;SDS011;43896;48.178;11.578;2023-06-22T09:55:45;11.25;;;5.07;;
58091;SDS011;43896;48.178;11.578;2023-06-22T09:58:10;13.07;;;5.30;;
58091;SDS011;43896;48.178;11.578;2023-06-22T10:00:35;12.98;;;5.30;;
58091;SDS011;43896;48.178;11.578;2023-06-22T10:03:01;12.93;;;5.63;;
58091;SDS011;43896;48.178;11.578;2023-06-22T10:05:26;14.30;;;5.32;;
58091;SDS011;43896;48.178;11.578;2023-06-22T10:07:51;11.98;;;5.25;;
58091;SDS011;43896;48.178;11.578;2023-06-22T10:10:17;12.68;;;5.70;;
58091;SDS011;43896;48.178;11.578;2023-06-22T10:12:45;10.88;;;5.28;;
58091;SDS011;43896;48.178;11.578;2023-06-22T10:17:37;15.05;;;5.60;;
58091;SDS011;43896;48.178;11.578;2023-06-22T10:20:02;14.50;;;5.50;;
58091;SDS011;43896;48.178;11.578;2023-06-22T10:22:38;14.05;;;5.82;;
58091;SDS011;43896;48.178;11.578;2023-06-22T10:25:08;13.90;;;5.30;;
58091;SDS011;43896;48.178;11.578;2023-06-22T10:27:34;12.52;;;4.90;;
58091;SDS011;43896;48.178;11.578;2023-06-22T10:30:00;12.70;;;5.90;;
58091;SDS011;43896;48.178;11.578;2023-06-22T10:32:25;14.55;;;5.45;;
58091;SDS011;43896;48.178;11.578;2023-06-22T10:34:50;13.20;;;5.63;;
58091;SDS011;43896;48.178;11.578;2023-06-22T10:37:16;10.63;;;5.22;;
58091;SDS011;43896;48.178;11.578;2023-06-22T10:39:41;12.35;;;6.07;;
58091;SDS011;43896;48.178;11.578;2023-06-22T10:42:06;10.98;;;5.80;;
58091;SDS011;43896;48.178;11.578;2023-06-22T10:44:32;12.20;;;5.25;;
58091;SDS011;43896;48.178;11.578;2023-06-22T10:46:57;12.75;;;5.60;;
58091;SDS011;43896;48.178;11.578;2023-06-22T10:49:23;13.93;;;5.53;;
58091;SDS011;43896;48.178;11.578;2023-06-22T10:51:48;13.45;;;5.80;;
58091;SDS011;43896;48.178;11.578;2023-06-22T10:54:13;12.23;;;5.43;;
58091;SDS011;43896;48.178;11.578;2023-06-22T10:56:39;12.52;;;5.53;;
58091;SDS011;43896;48.178;11.578;2023-06-22T10:59:05;12.02;;;5.50;;
58091;SDS011;43896;48.178;11.578;2023-06-22T11:01:30;13.32;;;5.07;;
58091;SDS011;43896;48.178;11.578;2023-06-22T11:03:56;14.30;;;5.72;;
58091;SDS011;43896;48.178;11.578;2023-06-22T11:06:22;16.98;;;5.80;;
58091;SDS011;43896;48.178;11.578;2023-06-22T11:08:47;14.73;;;5.00;;
58091;SDS011;43896;48.178;11.578;2023-06-22T11:11:12;12.60;;;5.80;;
58091;SDS011;43896;48.178;11.578;2023-06-22T11:13:38;12.10;;;5.45;;
58091;SDS011;43896;48.178;11.578;2023-06-22T11:16:03;14.32;;;5.68;;
58091;SDS011;43896;48.178;11.578;2023-06-22T11:18:28;12.93;;;5.65;;
58091;SDS011;43896;48.178;11.578;2023-06-22T11:20:54;13.50;;;5.88;;
58091;SDS011;43896;48.178;11.578;2023-06-22T11:23:19;14.13;;;5.75;;
58091;SDS011;43896;48.178;11.578;2023-06-22T11:25:44;12.05;;;5.70;;
58091;SDS011;43896;48.178;11.578;2023-06-22T11:28:11;12.57;;;5.30;;
58091;SDS011;43896;48.178;11.578;2023-06-22T11:30:36;13.93;;;5.65;;
58091;SDS011;43896;48.178;11.578;2023-06-22T11:33:02;13.45;;;5.50;;
58091;SDS011;43896;48.178;11.578;2023-06-22T11:35:27;11.55;;;5.13;;
58091;SDS011;43896;48.178;11.578;2023-06-22T11:37:52;13.05;;;5.50;;
58091;SDS011;43896;48.178;11.578;2023-06-22T11:40:18;13.07;;;6.13;;
58091;SDS011;43896;48.178;11.578;2023-06-22T11:42:43;14.48;;;5.90;;
58091;SDS011;43896;48.178;11.578;2023-06-22T11:45:09;14.18;;;6.10;;
58091;SDS011;43896;48.178;11.578;2023-06-22T11:47:34;13.75;;;5.68;;
58091;SDS011;43896;48.178;11.578;2023-06-22T11:49:59;14.77;;;5.47;;
58091;SDS011;43896;48.178;11.578;2023-06-22T11:52:25;10.40;;;5.80;;
58091;SDS011;43896;48.178;11.578;2023-06-22T11:54:52;14.38;;;5.50;;
58091;SDS011;43896;48.178;11.578;2023-06-22T11:57:17;13.23;;;5.57;;
58091;SDS011;43896;48.178;11.578;2023-06-22T11:59:43;10.48;;;5.50;;
58091;SDS011;43896;48.178;11.578;2023-06-22T12:02:08;14.75;;;5.57;;
58091;SDS011;43896;48.178;11.578;2023-06-22T12:04:34;15.23;;;5.20;;
58091;SDS011;43896;48.178;11.578;2023-06-22T12:07:00;13.65;;;5.75;;
58091;SDS011;43896;48.178;11.578;2023-06-22T12:09:25;13.15;;;5.63;;
58091;SDS011;43896;48.178;11.578;2023-06-22T12:11:50;17.17;;;5.35;;
58091;SDS011;43896;48.178;11.578;2023-06-22T12:14:16;13.77;;;5.47;;
58091;SDS011;43896;48.178;11.578;2023-06-22T12:16:41;16.20;;;5.55;;
58091;SDS011;43896;48.178;11.578;2023-06-22T12:19:08;13.93;;;5.30;;
58091;SDS011;43896;48.178;11.578;2023-06-22T12:21:34;17.40;;;5.95;;
58091;SDS011;43896;48.178;11.578;2023-06-22T12:23:59;12.45;;;5.60;;
58091;SDS011;43896;48.178;11.578;2023-06-22T12:26:25;14.63;;;5.63;;
58091;SDS011;43896;48.178;11.578;2023-06-22T12:28:50;11.90;;;5.55;;
58091;SDS011;43896;48.178;11.578;2023-06-22T12:31:15;10.75;;;5.47;;
58091;SDS011;43896;48.178;11.578;2023-06-22T12:33:41;15.43;;;5.53;;
58091;SDS011;43896;48.178;11.578;2023-06-22T12:36:06;11.07;;;5.53;;
58091;SDS011;43896;48.178;11.578;2023-06-22T12:38:32;13.25;;;5.82;;
58091;SDS011;43896;48.178;11.578;2023-06-22T12:40:57;11.82;;;5.25;;
58091;SDS011;43896;48.178;11.578;2023-06-22T12:43:22;14.38;;;5.25;;
58091;SDS011;43896;48.178;11.578;2023-06-22T12:45:48;13.30;;;5.53;;
58091;SDS011;43896;48.178;11.578;2023-06-22T12:48:13;11.95;;;5.40;;
58091;SDS011;43896;48.178;11.578;2023-06-22T12:50:39;12.20;;;5.70;;
58091;SDS011;43896;48.178;11.578;2023-06-22T12:53:04;10.10;;;4.90;;
58091;SDS011;43896;48.178;11.578;2023-06-22T12:55:31;12.27;;;5.50;;
58091;SDS011;43896;48.178;11.578;2023-06-22T12:57:56;16.00;;;5.47;;
58091;SDS011;43896;48.178;11.578;2023-06-22T13:00:22;13.75;;;5.55;;
58091;SDS011;43896;48.178;11.578;2023-06-22T13:02:47;13.98;;;5.53;;
58091;SDS011;43896;48.178;11.578;2023-06-22T13:05:12;11.35;;;5.20;;
58091;SDS011;43896;48.178;11.578;2023-06-22T13:07:39;13.85;;;5.15;;
58091;SDS011;43896;48.178;11.578;2023-06-22T13:10:04;11.30;;;4.80;;
58091;SDS011;43896;48.178;11.578;2023-06-22T13:12:30;11.52;;;4.85;;
58091;SDS011;43896;48.178;11.578;2023-06-22T13:14:55;10.30;;;5.35;;
58091;SDS011;43896;48.178;11.578;2023-06-22T13:17:21;12.05;;;4.95;;
58091;SDS011;43896;48.178;11.578;2023-06-22T13:19:46;9.27;;;5.43;;
58091;SDS011;43896;48.178;11.578;2023-06-22T13:22:45;12.27;;;4.95;;
58091;SDS011;43896;48.178;11.578;2023-06-22T13:25:08;12.43;;;4.88;;
58091;SDS011;43896;48.178;11.578;2023-06-22T13:27:37;11.00;;;5.28;;
58091;SDS011;43896;48.178;11.578;2023-06-22T13:30:05;14.65;;;5.05;;
58091;SDS011;43896;48.178;11.578;2023-06-22T13:32:31;13.30;;;5.43;;
58091;SDS011;43896;48.178;11.578;2023-06-22T13:34:57;13.32;;;5.20;;
58091;SDS011;43896;48.178;11.578;2023-06-22T13:37:22;16.38;;;5.40;;
58091;SDS011;43896;48.178;11.578;2023-06-22T13:39:48;11.82;;;5.15;;
58091;SDS011;43896;48.178;11.578;2023-06-22T13:42:13;11.13;;;5.00;;
58091;SDS011;43896;48.178;11.578;2023-06-22T13:44:38;12.50;;;5.20;;
58091;SDS011;43896;48.178;11.578;2023-06-22T13:47:04;13.55;;;5.15;;
58091;SDS011;43896;48.178;11.578;2023-06-22T13:49:30;14.57;;;5.15;;
58091;SDS011;43896;48.178;11.578;2023-06-22T13:51:55;13.02;;;5.90;;
58091;SDS011;43896;48.178;11.578;2023-06-22T13:54:20;12.65;;;5.57;;
58091;SDS011;43896;48.178;11.578;2023-06-22T13:56:46;12.45;;;5.35;;
58091;SDS011;43896;48.178;11.578;2023-06-22T13:59:11;10.75;;;4.97;;
58091;SDS011;43896;48.178;11.578;2023-06-22T14:01:37;14.68;;;5.15;;
58091;SDS011;43896;48.178;11.578;2023-06-22T14:04:04;14.52;;;5.18;;
58091;SDS011;43896;48.178;11.578;2023-06-22T14:06:30;10.02;;;4.82;;
58091;SDS011;43896;48.178;11.578;2023-06-22T14:08:58;10.20;;;5.22;;
58091;SDS011;43896;48.178;11.578;2023-06-22T14:11:33;13.45;;;4.95;;
58091;SDS011;43896;48.178;11.578;2023-06-22T14:14:40;13.85;;;5.15;;
58091;SDS011;43896;48.178;11.578;2023-06-22T14:17:06;13.38;;;4.65;;
58091;SDS011;43896;48.178;11.578;2023-06-22T14:19:31;13.45;;;4.68;;
58091;SDS011;43896;48.178;11.578;2023-06-22T14:21:57;14.52;;;5.07;;
58091;SDS011;43896;48.178;11.578;2023-06-22T14:24:22;12.48;;;5.20;;
58091;SDS011;43896;48.178;11.578;2023-06-22T14:26:48;13.65;;;5.18;;
58091;SDS011;43896;48.178;11.578;2023-06-22T14:29:14;11.95;;;5.00;;
58091;SDS011;43896;48.178;11.578;2023-06-22T14:31:39;11.98;;;4.65;;
58091;SDS011;43896;48.178;11.578;2023-06-22T14:34:05;18.48;;;5.00;;